createdAt,value
2018-03-06T00:02:09.870Z,3.93
2018-03-06T00:04:40.925Z,3.97
2018-03-06T00:07:11.903Z,3.94
2018-03-06T00:09:42.931Z,3.92
2018-03-06T00:12:14.048Z,3.89
2018-03-06T00:14:45.097Z,3.90
2018-03-06T00:17:16.147Z,3.89
2018-03-06T00:19:47.133Z,3.89
2018-03-06T00:22:18.142Z,3.88
2018-03-06T00:24:49.171Z,3.85
2018-03-06T00:27:20.220Z,3.87
2018-03-06T00:29:51.259Z,3.90
2018-03-06T00:32:22.386Z,3.88
2018-03-06T00:34:53.329Z,3.89
2018-03-06T00:37:24.350Z,3.86
2018-03-06T00:39:55.331Z,3.83
2018-03-06T00:42:26.368Z,3.81
2018-03-06T00:44:57.440Z,3.82
2018-03-06T00:47:28.439Z,3.79
2018-03-06T00:49:59.458Z,3.80
2018-03-06T00:52:30.433Z,3.82
2018-03-06T00:55:01.443Z,3.83
2018-03-06T00:57:32.459Z,3.84
2018-03-06T01:00:03.884Z,3.78
2018-03-06T01:02:34.887Z,3.76
2018-03-06T01:05:05.893Z,3.76
2018-03-06T01:07:36.909Z,3.78
2018-03-06T01:10:07.922Z,3.76
2018-03-06T01:12:38.969Z,3.72
2018-03-06T01:15:09.979Z,3.70
2018-03-06T01:17:41.020Z,3.66
2018-03-06T01:20:12.011Z,3.53
2018-03-06T01:22:43.036Z,3.46
2018-03-06T01:25:14.190Z,3.33
2018-03-06T01:27:45.198Z,3.25
2018-03-06T01:30:16.272Z,3.12
2018-03-06T01:32:47.284Z,3.08
2018-03-06T01:35:18.263Z,3.09
2018-03-06T01:37:49.268Z,3.13
2018-03-06T01:40:20.276Z,3.24
2018-03-06T01:42:51.295Z,3.23
2018-03-06T01:45:22.297Z,3.20
2018-03-06T01:47:53.338Z,3.10
2018-03-06T01:50:24.427Z,3.05
2018-03-06T01:52:55.444Z,3.02
2018-03-06T01:55:26.461Z,3.09
2018-03-06T01:57:57.477Z,3.07
2018-03-06T02:00:28.508Z,3.10
2018-03-06T02:02:59.509Z,3.11
2018-03-06T02:05:30.497Z,3.12
2018-03-06T02:08:01.504Z,3.14
2018-03-06T02:10:32.481Z,3.17
2018-03-06T02:13:03.487Z,3.26
2018-03-06T02:15:34.513Z,3.28
2018-03-06T02:18:05.550Z,3.29
2018-03-06T02:20:37.323Z,3.32
2018-03-06T02:23:08.367Z,3.33
2018-03-06T02:25:39.416Z,3.32
2018-03-06T02:28:10.432Z,3.29
2018-03-06T02:30:41.479Z,3.30
2018-03-06T02:33:12.541Z,3.31
2018-03-06T02:35:43.543Z,3.34
2018-03-06T02:38:14.581Z,3.36
2018-03-06T02:40:45.579Z,3.41
2018-03-06T02:43:16.585Z,3.45
2018-03-06T02:45:47.576Z,3.46
2018-03-06T02:48:18.596Z,3.45
2018-03-06T02:50:49.651Z,3.47
2018-03-06T02:53:20.750Z,3.44
2018-03-06T02:55:51.768Z,3.33
2018-03-06T02:58:22.812Z,3.33
2018-03-06T03:00:53.857Z,3.32
2018-03-06T03:03:24.865Z,3.33
2018-03-06T03:05:55.940Z,3.29
2018-03-06T03:08:26.953Z,3.24
2018-03-06T03:10:57.988Z,3.20
2018-03-06T03:13:29.036Z,3.16
2018-03-06T03:16:00.053Z,3.10
2018-03-06T03:18:31.927Z,3.12
2018-03-06T03:21:02.925Z,3.18
2018-03-06T03:23:33.971Z,3.26
2018-03-06T03:26:05.008Z,3.32
2018-03-06T03:28:36.036Z,3.38
2018-03-06T03:31:07.072Z,3.37
2018-03-06T03:33:38.075Z,3.41
2018-03-06T03:36:09.090Z,3.46
2018-03-06T03:38:40.112Z,3.50
2018-03-06T03:41:11.192Z,3.46
2018-03-06T03:43:42.229Z,3.27
2018-03-06T03:46:13.251Z,3.22
2018-03-06T03:48:44.255Z,3.17
2018-03-06T03:51:15.288Z,3.17
2018-03-06T03:53:46.306Z,3.23
2018-03-06T03:56:17.319Z,3.29
2018-03-06T03:58:48.324Z,3.28
2018-03-06T04:01:19.333Z,3.25
2018-03-06T04:03:50.299Z,3.24
2018-03-06T04:06:21.335Z,3.28
2018-03-06T04:08:52.362Z,3.23
2018-03-06T04:11:23.396Z,3.25
2018-03-06T04:13:54.442Z,3.22
2018-03-06T04:16:25.411Z,3.16
2018-03-06T04:18:56.404Z,3.19
2018-03-06T04:21:27.401Z,3.26
2018-03-06T04:23:58.413Z,3.32
2018-03-06T04:26:29.396Z,3.22
2018-03-06T04:29:00.411Z,3.25
2018-03-06T04:31:31.469Z,3.27
2018-03-06T04:34:02.464Z,3.29
2018-03-06T04:36:33.479Z,3.27
2018-03-06T04:39:04.607Z,3.27
2018-03-06T04:41:35.596Z,3.24
2018-03-06T04:44:06.616Z,3.20
2018-03-06T04:46:37.630Z,3.19
2018-03-06T04:49:08.627Z,3.11
2018-03-06T04:51:39.700Z,3.09
2018-03-06T04:54:10.745Z,3.08
2018-03-06T04:56:41.761Z,3.03
2018-03-06T04:59:12.750Z,2.98
2018-03-06T05:01:43.747Z,2.96
2018-03-06T05:04:14.780Z,2.92
2018-03-06T05:06:45.794Z,2.84
2018-03-06T05:09:16.804Z,2.83
2018-03-06T05:11:47.789Z,2.90
2018-03-06T05:14:18.816Z,2.95
2018-03-06T05:16:49.819Z,2.96
2018-03-06T05:19:20.868Z,3.03
2018-03-06T05:21:51.921Z,3.00
2018-03-06T05:24:22.931Z,2.97
2018-03-06T05:26:54.021Z,2.93
2018-03-06T05:29:25.017Z,2.92
2018-03-06T05:31:56.045Z,2.96
2018-03-06T05:34:27.035Z,3.02
2018-03-06T05:36:58.041Z,2.99
2018-03-06T05:39:29.026Z,2.99
2018-03-06T05:42:00.057Z,2.89
2018-03-06T05:44:31.008Z,2.85
2018-03-06T05:47:02.041Z,2.92
2018-03-06T05:49:33.048Z,2.90
2018-03-06T05:52:04.067Z,3.00
2018-03-06T05:54:35.090Z,3.09
2018-03-06T05:57:06.073Z,3.16
2018-03-06T05:59:37.097Z,3.26
2018-03-06T06:02:08.105Z,3.41
2018-03-06T06:04:39.129Z,3.50
2018-03-06T06:07:10.134Z,3.59
2018-03-06T06:09:41.155Z,3.73
2018-03-06T06:12:13.096Z,3.84
2018-03-06T06:14:44.095Z,4.00
2018-03-06T06:17:15.093Z,4.16
2018-03-06T06:19:46.063Z,4.27
2018-03-06T06:22:17.053Z,4.34
2018-03-06T06:24:48.061Z,4.45
2018-03-06T06:27:19.074Z,4.51
2018-03-06T06:29:50.069Z,4.64
2018-03-06T06:32:21.095Z,4.81
2018-03-06T06:34:52.067Z,4.91
2018-03-06T06:37:23.081Z,5.03
2018-03-06T06:39:54.083Z,5.15
2018-03-06T06:42:25.110Z,5.32
2018-03-06T06:44:56.084Z,5.47
2018-03-06T06:47:27.107Z,5.74
2018-03-06T06:49:58.131Z,6.07
2018-03-06T06:52:29.150Z,6.36
2018-03-06T06:55:00.161Z,6.65
2018-03-06T06:57:31.120Z,6.91
2018-03-06T07:00:02.146Z,7.08
2018-03-06T07:02:33.099Z,6.98
2018-03-06T07:05:04.129Z,7.12
2018-03-06T07:07:35.074Z,7.36
2018-03-06T07:10:06.085Z,7.67
2018-03-06T07:12:37.097Z,7.73
2018-03-06T07:15:08.117Z,7.77
2018-03-06T07:17:39.180Z,8.01
2018-03-06T07:20:10.141Z,8.14
2018-03-06T07:22:41.148Z,8.25
2018-03-06T07:25:12.113Z,8.39
2018-03-06T07:27:43.147Z,8.37
2018-03-06T07:30:14.107Z,8.17
2018-03-06T07:32:45.111Z,8.15
2018-03-06T07:35:16.104Z,8.18
2018-03-06T07:37:47.155Z,8.26
2018-03-06T07:40:18.166Z,8.52
2018-03-06T07:42:49.177Z,8.86
2018-03-06T07:45:20.248Z,9.12
2018-03-06T07:47:51.251Z,9.14
2018-03-06T07:50:22.295Z,9.12
2018-03-06T07:52:53.310Z,9.09
2018-03-06T07:55:24.314Z,9.20
2018-03-06T07:57:55.367Z,9.12
2018-03-06T08:00:26.409Z,8.92
2018-03-06T08:02:57.407Z,8.86
2018-03-06T08:05:28.449Z,8.56
2018-03-06T08:07:59.452Z,8.50
2018-03-06T08:10:30.468Z,8.78
2018-03-06T08:13:01.443Z,9.27
2018-03-06T08:15:32.444Z,9.64
2018-03-06T08:18:03.429Z,9.78
2018-03-06T08:20:34.442Z,9.84
2018-03-06T08:23:05.464Z,10.00
2018-03-06T08:25:36.457Z,10.07
2018-03-06T08:28:07.452Z,10.24
2018-03-06T08:33:32.894Z,10.04
2018-03-06T08:36:03.883Z,10.04
2018-03-06T08:38:34.870Z,9.95
2018-03-06T08:41:05.807Z,9.92
2018-03-06T08:43:36.779Z,9.88
2018-03-06T08:46:07.781Z,10.02
2018-03-06T08:48:38.766Z,10.15
2018-03-06T08:51:09.745Z,9.97
2018-03-06T08:53:40.684Z,9.88
2018-03-06T08:56:11.675Z,9.74
2018-03-06T08:58:42.666Z,9.68
2018-03-06T09:01:13.689Z,9.50
2018-03-06T09:03:44.751Z,9.26
2018-03-06T09:06:15.730Z,9.33
2018-03-06T09:08:46.721Z,9.56
2018-03-06T09:11:17.709Z,9.77
2018-03-06T09:13:48.709Z,9.88
2018-03-06T09:16:19.705Z,9.93
2018-03-06T09:18:50.773Z,9.99
2018-03-06T09:21:21.816Z,9.76
2018-03-06T09:23:52.781Z,9.55
2018-03-06T09:26:23.771Z,9.68
2018-03-06T09:28:54.802Z,9.84
2018-03-06T09:31:25.837Z,9.85
2018-03-06T09:33:56.842Z,9.82
2018-03-06T09:36:27.887Z,9.65
2018-03-06T09:38:58.824Z,9.35
2018-03-06T09:41:29.841Z,9.32
2018-03-06T09:44:00.818Z,9.25
2018-03-06T09:46:31.822Z,9.32
2018-03-06T09:49:02.893Z,9.19
2018-03-06T09:51:33.844Z,9.33
2018-03-06T09:54:04.875Z,9.37
2018-03-06T09:56:35.918Z,9.63
2018-03-06T09:59:06.925Z,9.89
2018-03-06T10:01:37.949Z,10.08
2018-03-06T10:04:08.927Z,10.08
2018-03-06T10:06:39.904Z,10.19
2018-03-06T10:09:10.927Z,10.14
2018-03-06T10:11:41.963Z,10.13
2018-03-06T10:14:12.959Z,10.13
2018-03-06T10:16:43.952Z,9.96
2018-03-06T10:19:14.947Z,10.05
2018-03-06T10:21:45.945Z,10.21
2018-03-06T10:24:16.961Z,10.35
2018-03-06T10:26:47.977Z,10.26
2018-03-06T10:29:19.028Z,10.23
2018-03-06T10:31:50.068Z,10.25
2018-03-06T10:34:21.096Z,10.39
2018-03-06T10:36:52.152Z,10.42
2018-03-06T10:39:23.137Z,10.29
2018-03-06T10:41:54.185Z,10.24
2018-03-06T10:44:25.168Z,10.06
2018-03-06T10:46:56.221Z,10.17
2018-03-06T10:49:27.229Z,10.41
2018-03-06T10:51:58.254Z,10.51
2018-03-06T10:54:29.244Z,10.72
2018-03-06T10:57:00.230Z,11.01
2018-03-06T10:59:31.222Z,11.02
2018-03-06T11:02:03.027Z,11.09
2018-03-06T11:04:34.016Z,11.10
2018-03-06T11:07:05.017Z,11.31
2018-03-06T11:09:36.026Z,11.48
2018-03-06T11:12:06.979Z,11.75
2018-03-06T11:14:37.969Z,11.95
2018-03-06T11:17:08.907Z,12.25
2018-03-06T11:19:39.884Z,12.41
2018-03-06T11:22:10.892Z,12.23
2018-03-06T11:24:41.912Z,12.00
2018-03-06T11:27:12.918Z,12.35
2018-03-06T11:29:43.945Z,12.53
2018-03-06T11:32:14.957Z,12.90
2018-03-06T11:34:45.925Z,13.15
2018-03-06T11:37:16.901Z,13.61
2018-03-06T11:39:47.883Z,13.84
2018-03-06T11:42:18.944Z,13.65
2018-03-06T11:44:49.932Z,13.12
2018-03-06T11:47:20.949Z,12.43
2018-03-06T11:49:51.916Z,12.00
2018-03-06T11:52:22.956Z,12.09
2018-03-06T11:54:53.927Z,12.17
2018-03-06T11:57:24.934Z,12.47
2018-03-06T11:59:55.903Z,12.49
2018-03-06T12:02:26.915Z,12.52
2018-03-06T12:04:57.956Z,12.70
2018-03-06T12:07:28.935Z,12.67
2018-03-06T12:09:59.915Z,12.65
2018-03-06T12:12:30.908Z,12.49
2018-03-06T12:15:01.875Z,12.31
2018-03-06T12:17:32.850Z,12.23
2018-03-06T12:20:03.923Z,12.37
2018-03-06T12:22:34.928Z,12.35
2018-03-06T12:25:05.936Z,12.06
2018-03-06T12:27:36.925Z,11.85
2018-03-06T12:30:07.961Z,11.58
2018-03-06T12:32:38.937Z,11.48
2018-03-06T12:35:09.964Z,11.71
2018-03-06T12:37:41.017Z,11.74
2018-03-06T12:40:12.080Z,11.75
2018-03-06T12:42:43.106Z,11.94
2018-03-06T12:45:14.081Z,11.84
2018-03-06T12:47:45.071Z,11.92
2018-03-06T12:50:16.081Z,11.71
2018-03-06T12:52:47.078Z,11.86
2018-03-06T12:55:18.080Z,12.06
2018-03-06T12:57:49.108Z,12.02
2018-03-06T13:00:20.086Z,12.18
2018-03-06T13:02:51.066Z,12.48
2018-03-06T13:05:22.037Z,12.36
2018-03-06T13:07:53.021Z,12.59
2018-03-06T13:10:24.090Z,12.83
2018-03-06T13:12:55.112Z,12.85
2018-03-06T13:15:26.099Z,12.60
2018-03-06T13:17:57.088Z,12.55
2018-03-06T13:20:28.071Z,12.66
2018-03-06T13:22:59.111Z,12.81
2018-03-06T13:25:30.118Z,13.12
2018-03-06T13:28:01.102Z,13.26
2018-03-06T13:30:32.110Z,13.31
2018-03-06T13:33:03.098Z,13.39
2018-03-06T13:35:34.087Z,13.47
2018-03-06T13:38:05.097Z,12.91
2018-03-06T13:40:36.074Z,12.83
2018-03-06T13:43:07.041Z,13.06
2018-03-06T13:45:38.027Z,13.29
2018-03-06T13:48:09.035Z,13.41
2018-03-06T13:50:40.016Z,13.37
2018-03-06T13:53:11.025Z,13.39
2018-03-06T13:55:42.050Z,13.23
2018-03-06T13:58:13.024Z,13.05
2018-03-06T14:00:44.029Z,12.71
2018-03-06T14:03:15.014Z,12.26
2018-03-06T14:05:46.032Z,11.69
2018-03-06T14:08:17.026Z,11.49
2018-03-06T14:10:48.001Z,11.16
2018-03-06T14:13:19.016Z,10.74
2018-03-06T14:15:50.026Z,10.62
2018-03-06T14:18:21.022Z,10.56
2018-03-06T14:20:52.012Z,10.49
2018-03-06T14:23:23.029Z,10.34
2018-03-06T14:25:54.086Z,10.38
2018-03-06T14:28:25.111Z,10.44
2018-03-06T14:30:56.152Z,10.60
2018-03-06T14:33:27.099Z,10.67
2018-03-06T14:35:58.087Z,10.61
2018-03-06T14:38:29.106Z,10.38
2018-03-06T14:41:00.120Z,10.37
2018-03-06T14:43:31.139Z,10.32
2018-03-06T14:46:02.133Z,10.32
2018-03-06T14:48:33.124Z,10.22
2018-03-06T14:51:04.145Z,10.19
2018-03-06T14:53:35.197Z,10.30
2018-03-06T14:56:06.190Z,10.36
2018-03-06T14:58:37.223Z,10.11
2018-03-06T15:01:08.224Z,10.03
2018-03-06T15:03:39.187Z,9.92
2018-03-06T15:06:10.199Z,9.87
2018-03-06T15:08:41.157Z,9.74
2018-03-06T15:11:12.148Z,9.53
2018-03-06T15:13:43.156Z,9.31
2018-03-06T15:16:14.129Z,9.23
2018-03-06T15:18:45.099Z,9.20
2018-03-06T15:21:16.063Z,9.14
2018-03-06T15:23:47.087Z,9.02
2018-03-06T15:26:18.151Z,8.95
2018-03-06T15:28:49.166Z,8.91
2018-03-06T15:31:20.165Z,8.83
2018-03-06T15:33:51.185Z,8.68
2018-03-06T15:36:22.203Z,8.44
2018-03-06T15:38:53.240Z,8.19
2018-03-06T15:41:24.258Z,8.13
2018-03-06T15:43:55.244Z,8.03
2018-03-06T15:46:26.286Z,7.98
2018-03-06T15:48:57.270Z,8.01
2018-03-06T15:51:28.321Z,7.97
2018-03-06T15:53:59.345Z,7.95
2018-03-06T15:56:30.341Z,7.92
2018-03-06T15:59:01.471Z,7.88
2018-03-06T16:01:32.490Z,7.88
2018-03-06T16:04:03.610Z,7.88
2018-03-06T16:06:34.678Z,7.87
2018-03-06T16:09:05.688Z,7.73
2018-03-06T16:11:36.724Z,7.65
2018-03-06T16:14:07.771Z,7.56
2018-03-06T16:16:38.847Z,7.50
2018-03-06T16:19:09.874Z,7.47
2018-03-06T16:21:40.886Z,7.41
2018-03-06T16:24:11.973Z,7.34
2018-03-06T16:26:43.019Z,7.17
2018-03-06T16:29:14.271Z,7.14
2018-03-06T16:31:45.310Z,7.10
2018-03-06T16:34:16.328Z,7.06
2018-03-06T16:36:47.342Z,7.06
2018-03-06T16:39:18.336Z,6.98
2018-03-06T16:41:49.397Z,6.93
2018-03-06T16:44:20.429Z,6.89
2018-03-06T16:46:51.466Z,6.92
2018-03-06T16:49:22.528Z,6.92
2018-03-06T16:51:53.570Z,6.89
2018-03-06T16:54:24.584Z,6.92
2018-03-06T16:56:55.677Z,6.96
2018-03-06T16:59:26.680Z,6.96
2018-03-06T17:01:57.690Z,6.99
2018-03-06T17:04:28.718Z,7.02
2018-03-06T17:06:59.765Z,7.03
2018-03-06T17:09:30.756Z,6.98
2018-03-06T17:12:01.836Z,6.98
2018-03-06T17:14:32.866Z,6.99
2018-03-06T17:17:03.888Z,7.00
2018-03-06T17:19:34.943Z,6.98
2018-03-06T17:22:06.014Z,7.02
2018-03-06T17:24:37.052Z,7.04
2018-03-06T17:27:08.050Z,7.00
2018-03-06T17:29:39.046Z,6.97
2018-03-06T17:32:10.523Z,6.98
2018-03-06T17:34:41.541Z,6.97
2018-03-06T17:37:12.709Z,6.89
2018-03-06T17:39:43.714Z,6.88
2018-03-06T17:42:14.784Z,6.90
2018-03-06T17:44:45.812Z,6.85
2018-03-06T17:47:16.801Z,6.86
2018-03-06T17:49:47.858Z,6.87
2018-03-06T17:52:18.881Z,6.87
2018-03-06T17:54:49.946Z,6.86
2018-03-06T17:57:20.970Z,6.87
2018-03-06T17:59:52.007Z,6.86
2018-03-06T18:02:23.011Z,6.85
2018-03-06T18:04:54.052Z,6.86
2018-03-06T18:07:25.126Z,6.79
2018-03-06T18:09:56.132Z,6.71
2018-03-06T18:12:27.153Z,6.68
2018-03-06T18:14:58.173Z,6.63
2018-03-06T18:17:29.174Z,6.63
2018-03-06T18:20:00.192Z,6.61
2018-03-06T18:22:31.250Z,6.51
2018-03-06T18:25:02.268Z,6.54
2018-03-06T18:27:33.338Z,6.64
2018-03-06T18:30:04.405Z,6.74
2018-03-06T18:32:35.485Z,6.77
2018-03-06T18:35:06.575Z,6.80
2018-03-06T18:37:37.640Z,6.83
2018-03-06T18:40:08.795Z,6.84
2018-03-06T18:42:39.792Z,6.87
2018-03-06T18:45:10.811Z,6.79
2018-03-06T18:47:41.813Z,6.84
2018-03-06T18:50:25.197Z,6.78
2018-03-06T18:52:56.230Z,6.71
2018-03-06T18:55:27.294Z,6.76
2018-03-06T18:57:58.314Z,6.86
2018-03-06T19:04:00.095Z,6.90
2018-03-06T19:06:35.021Z,6.89
2018-03-06T19:09:06.076Z,6.90
2018-03-06T19:11:37.067Z,6.88
2018-03-06T19:14:08.130Z,6.88
2018-03-06T19:16:39.149Z,6.78
2018-03-06T19:19:10.276Z,6.70
2018-03-06T19:21:41.259Z,6.66
2018-03-06T19:24:12.309Z,6.63
2018-03-06T19:26:43.366Z,6.61
2018-03-06T19:29:14.418Z,6.56
2018-03-06T19:31:45.437Z,6.53
2018-03-06T19:34:16.460Z,6.53
2018-03-06T19:36:47.469Z,6.55
2018-03-06T19:39:18.439Z,6.59
2018-03-06T19:41:49.461Z,6.69
2018-03-06T19:44:20.476Z,6.80
2018-03-06T19:46:51.485Z,6.87
2018-03-06T19:49:22.503Z,6.86
2018-03-06T19:51:53.524Z,6.84
2018-03-06T19:54:24.463Z,6.85
2018-03-06T19:56:55.494Z,6.88
2018-03-06T19:59:26.467Z,6.87
2018-03-06T20:01:57.442Z,6.90
2018-03-06T20:04:28.501Z,6.85
2018-03-06T20:06:59.487Z,6.75
2018-03-06T20:09:30.513Z,6.68
2018-03-06T20:12:01.502Z,6.68
2018-03-06T20:14:38.630Z,6.67
2018-03-06T20:17:09.617Z,6.68
2018-03-06T20:19:40.629Z,6.70
2018-03-06T20:22:11.644Z,6.73
2018-03-06T20:24:48.760Z,6.78
2018-03-06T20:27:19.834Z,6.76
2018-03-06T20:29:50.803Z,6.74
2018-03-06T20:32:28.057Z,6.69
2018-03-06T20:34:59.068Z,6.65
2018-03-06T20:37:30.073Z,6.65
2018-03-06T20:40:07.263Z,6.67
2018-03-06T20:42:38.276Z,6.64
2018-03-06T20:45:09.322Z,6.62
2018-03-06T20:47:40.319Z,6.63
2018-03-06T20:50:11.337Z,6.62
2018-03-06T20:52:48.339Z,6.63
2018-03-06T20:55:19.342Z,6.61
2018-03-06T20:57:50.309Z,6.62
2018-03-06T21:00:21.342Z,6.68
2018-03-06T21:02:52.330Z,6.74
2018-03-06T21:05:23.365Z,6.71
2018-03-06T21:07:54.329Z,6.73
2018-03-06T21:10:25.324Z,6.73
2018-03-06T21:12:56.316Z,6.70
2018-03-06T21:15:27.335Z,6.70
2018-03-06T21:17:58.377Z,6.68
2018-03-06T21:20:29.367Z,6.65
2018-03-06T21:23:00.390Z,6.61
2018-03-06T21:25:31.377Z,6.59
2018-03-06T21:28:02.392Z,6.62
2018-03-06T21:30:33.343Z,6.63
2018-03-06T21:33:04.344Z,6.64
2018-03-06T21:35:35.315Z,6.62
2018-03-06T21:38:06.333Z,6.65
2018-03-06T21:40:37.316Z,6.63
2018-03-06T21:43:08.281Z,6.64
2018-03-06T21:45:39.230Z,6.65
2018-03-06T21:48:10.221Z,6.63
2018-03-06T21:50:41.210Z,6.67
2018-03-06T21:53:12.152Z,6.71
2018-03-06T21:55:43.177Z,6.75
2018-03-06T21:58:14.173Z,6.72
2018-03-06T22:00:45.197Z,6.69
2018-03-06T22:03:16.160Z,6.63
2018-03-06T22:05:47.155Z,6.55
2018-03-06T22:08:18.172Z,6.49
2018-03-06T22:10:49.155Z,6.44
2018-03-06T22:13:20.180Z,6.34
2018-03-06T22:15:51.162Z,6.28
2018-03-06T22:18:22.191Z,6.19
2018-03-06T22:20:53.151Z,6.09
2018-03-06T22:23:24.154Z,6.06
2018-03-06T22:25:55.118Z,6.02
2018-03-06T22:28:26.160Z,5.97
2018-03-06T22:30:57.173Z,5.96
2018-03-06T22:33:28.163Z,5.93
2018-03-06T22:35:59.166Z,5.91
2018-03-06T22:38:30.163Z,5.89
2018-03-06T22:41:01.184Z,5.87
2018-03-06T22:43:32.160Z,5.85
2018-03-06T22:46:03.140Z,5.85
2018-03-06T22:48:34.146Z,5.81
2018-03-06T22:51:05.202Z,5.78
2018-03-06T22:53:36.198Z,5.77
2018-03-06T22:56:07.202Z,5.80
2018-03-06T22:58:38.233Z,5.84
2018-03-06T23:01:09.204Z,5.88
2018-03-06T23:03:40.176Z,5.94
2018-03-06T23:06:11.136Z,6.05
2018-03-06T23:08:42.155Z,6.13
2018-03-06T23:11:13.118Z,6.23
2018-03-06T23:13:44.156Z,6.30
2018-03-06T23:16:15.153Z,6.37
2018-03-06T23:18:46.166Z,6.40
2018-03-06T23:21:17.146Z,6.44
2018-03-06T23:23:48.158Z,6.44
2018-03-06T23:26:19.172Z,6.44
2018-03-06T23:28:50.151Z,6.43
2018-03-06T23:31:21.168Z,6.44
2018-03-06T23:33:52.168Z,6.47
2018-03-06T23:36:23.122Z,6.51
2018-03-06T23:38:54.156Z,6.55
2018-03-06T23:41:25.160Z,6.61
2018-03-06T23:43:56.217Z,6.67
2018-03-06T23:46:27.199Z,6.73
2018-03-06T23:48:58.250Z,6.77
2018-03-06T23:51:29.236Z,6.76
2018-03-06T23:54:00.215Z,6.78
2018-03-06T23:56:31.253Z,6.82
2018-03-06T23:59:02.275Z,6.84
